Time;durP1;ratioP1;P1;durP2;ratioP2;P2;SDS_P1;SDS_P2;PMS_P1;PMS_P2;Temp;Humidity;BMP_temperature;BMP_pressure;BME280_temperature;BME280_humidity;BME280_pressure;Samples;Min_cycle;Max_cycle;Signal;HPM_P1;HPM_P2
2022/07/11 00:02:13;;;;;;;6.15;2.80;;;27.20;99.90;;;;;;4158009;28;20045;-69
2022/07/11 00:04:30;;;;;;;8.07;3.03;;;27.30;99.90;;;;;;4144838;28;20049;-68
2022/07/11 00:06:38;;;;;;;5.22;2.58;;;27.30;99.90;;;;;;4158753;28;20059;-68
2022/07/11 00:08:56;;;;;;;3.72;2.30;;;27.40;99.90;;;;;;4160799;28;20064;-68
2022/07/11 00:11:09;;;;;;;5.97;2.63;;;27.50;99.90;;;;;;4176921;28;20072;-67
2022/07/11 00:13:18;;;;;;;5.50;2.55;;;27.50;99.90;;;;;;4175941;28;20118;-67
2022/07/11 00:15:28;;;;;;;5.28;2.50;;;27.60;99.90;;;;;;4175588;28;20048;-68
2022/07/11 00:17:40;;;;;;;4.53;2.60;;;27.60;99.90;;;;;;4176490;28;20076;-67
2022/07/11 00:19:46;;;;;;;5.70;2.00;;;27.70;99.90;;;;;;4176704;28;20041;-66
2022/07/11 00:21:53;;;;;;;5.55;2.03;;;27.80;99.90;;;;;;4168700;28;20057;-67
2022/07/11 00:24:14;;;;;;;3.42;1.77;;;27.90;99.90;;;;;;4205094;28;20075;-67
2022/07/11 00:26:21;;;;;;;1.95;1.40;;;28.00;99.90;;;;;;4190279;28;20053;-68
2022/07/11 00:28:32;;;;;;;5.22;1.98;;;28.00;99.90;;;;;;4184702;28;20048;-68
2022/07/11 00:30:40;;;;;;;3.58;1.65;;;27.90;99.90;;;;;;4174472;28;20048;-67
2022/07/11 00:32:56;;;;;;;4.93;1.90;;;27.90;99.90;;;;;;4175428;28;20045;-68
2022/07/11 00:35:05;;;;;;;5.25;1.83;;;28.00;99.90;;;;;;4174970;28;20497;-67
2022/07/11 00:37:28;;;;;;;3.45;1.85;;;28.10;99.90;;;;;;4175632;28;20068;-67
2022/07/11 00:39:36;;;;;;;3.53;1.80;;;28.20;99.90;;;;;;4174939;28;20048;-67
2022/07/11 00:41:42;;;;;;;5.45;1.90;;;28.30;99.90;;;;;;4175607;28;20053;-67
2022/07/11 00:43:57;;;;;;;7.07;1.83;;;28.30;99.90;;;;;;4172499;28;20095;-67
2022/07/11 00:46:23;;;;;;;5.72;2.08;;;28.40;99.90;;;;;;4170114;28;20128;-68
2022/07/11 00:48:35;;;;;;;7.03;2.10;;;28.40;99.90;;;;;;4157354;28;20103;-68
2022/07/11 00:50:44;;;;;;;3.58;1.70;;;28.50;99.90;;;;;;4188137;28;20510;-68
2022/07/11 00:52:53;;;;;;;4.57;1.80;;;28.50;99.90;;;;;;4166636;28;20049;-68
2022/07/11 00:55:00;;;;;;;6.32;1.98;;;28.50;99.90;;;;;;4165140;28;20033;-68
2022/07/11 00:57:07;;;;;;;2.80;1.60;;;28.50;99.90;;;;;;4159239;28;20037;-67
2022/07/11 00:59:34;;;;;;;5.38;1.48;;;28.60;99.90;;;;;;4143268;28;20751;-68
2022/07/11 01:01:50;;;;;;;4.57;1.65;;;28.60;99.90;;;;;;4127293;28;20047;-68
2022/07/11 01:04:03;;;;;;;5.22;1.65;;;28.60;99.90;;;;;;4152141;28;20492;-68
2022/07/11 01:06:23;;;;;;;5.10;1.83;;;28.60;99.90;;;;;;4158257;28;20102;-68
2022/07/11 01:08:35;;;;;;;5.75;1.92;;;28.50;99.90;;;;;;4153742;28;20065;-68
2022/07/11 01:11:10;;;;;;;7.05;1.67;;;28.40;99.90;;;;;;4139068;28;20120;-67
2022/07/11 01:13:19;;;;;;;4.55;1.42;;;28.50;99.90;;;;;;4129913;28;20452;-67
2022/07/11 01:15:36;;;;;;;6.13;2.40;;;28.30;99.90;;;;;;4153608;28;20874;-67
2022/07/11 01:17:41;;;;;;;3.72;1.80;;;28.50;99.90;;;;;;4153939;28;20053;-67
2022/07/11 01:19:50;;;;;;;8.75;2.35;;;28.60;99.90;;;;;;4153988;28;20083;-67
2022/07/11 01:22:03;;;;;;;3.83;2.25;;;28.50;99.90;;;;;;4154466;28;20479;-67
2022/07/11 01:24:12;;;;;;;8.27;2.72;;;28.50;99.90;;;;;;4153002;28;20041;-67
2022/07/11 01:26:29;;;;;;;5.25;2.03;;;28.60;99.90;;;;;;4153469;28;20397;-67
2022/07/11 01:28:38;;;;;;;6.85;2.17;;;28.60;99.90;;;;;;4154366;28;20046;-67
2022/07/11 01:30:49;;;;;;;2.88;1.98;;;28.60;99.90;;;;;;4166481;28;20127;-67
2022/07/11 01:32:57;;;;;;;3.25;1.85;;;28.40;99.90;;;;;;4171410;28;20114;-67
2022/07/11 01:35:12;;;;;;;4.75;2.10;;;28.50;99.90;;;;;;4170439;28;20053;-67
2022/07/11 01:37:22;;;;;;;4.85;2.58;;;28.50;99.90;;;;;;4173394;28;20507;-67
2022/07/11 01:39:29;;;;;;;5.03;1.77;;;28.60;99.90;;;;;;4188838;28;20048;-67
2022/07/11 01:41:45;;;;;;;4.93;2.05;;;28.60;99.90;;;;;;4188271;28;20427;-67
2022/07/11 01:43:53;;;;;;;6.30;2.50;;;28.70;99.90;;;;;;4177392;28;20079;-67
2022/07/11 01:45:59;;;;;;;4.32;2.38;;;28.80;99.90;;;;;;4168488;28;20052;-67
2022/07/11 01:48:05;;;;;;;6.53;2.53;;;28.90;99.90;;;;;;4155138;28;20100;-67
2022/07/11 01:50:14;;;;;;;3.03;2.08;;;29.00;99.90;;;;;;4171765;28;20053;-67
2022/07/11 01:52:28;;;;;;;;;;;29.00;99.90;;;;;;4169444;28;20045;-67
2022/07/11 01:54:38;;;;;;;6.72;2.03;;;29.00;99.90;;;;;;4180381;28;19924;-68
2022/07/11 01:56:44;;;;;;;2.30;1.70;;;29.00;99.90;;;;;;4187927;28;20059;-68
2022/07/11 01:58:52;;;;;;;2.30;1.85;;;29.00;99.90;;;;;;4181074;28;20261;-68
2022/07/11 02:01:04;;;;;;;4.60;1.77;;;28.90;99.90;;;;;;4166762;28;20072;-68
2022/07/11 02:03:16;;;;;;;3.22;1.67;;;28.90;99.90;;;;;;4159747;28;20061;-68
2022/07/11 02:05:38;;;;;;;6.63;1.88;;;28.90;99.90;;;;;;4170198;28;20053;-68
2022/07/11 02:10:04;;;;;;;3.47;1.80;;;28.90;99.90;;;;;;4171969;28;20072;-67
2022/07/11 02:12:15;;;;;;;3.88;1.40;;;28.80;99.90;;;;;;4172178;28;20071;-68
2022/07/11 02:14:24;;;;;;;2.83;1.60;;;29.00;99.90;;;;;;4170825;28;20048;-67
2022/07/11 02:16:31;;;;;;;2.17;1.40;;;29.00;99.90;;;;;;4171334;28;20319;-68
2022/07/11 02:18:45;;;;;;;2.22;1.35;;;29.00;99.90;;;;;;4170177;28;20602;-68
2022/07/11 02:21:00;;;;;;;9.60;1.70;;;29.00;99.90;;;;;;4171523;28;20036;-67
2022/07/11 02:23:06;;;;;;;4.15;1.60;;;29.00;99.90;;;;;;4171458;28;20044;-68
2022/07/11 02:25:26;;;;;;;5.60;1.60;;;28.90;99.90;;;;;;4176777;28;20059;-67
2022/07/11 02:27:39;;;;;;;;;;;29.00;99.90;;;;;;4188021;28;20135;-67
2022/07/11 02:29:52;;;;;;;2.25;1.20;;;29.20;99.90;;;;;;4139097;28;19932;-67
2022/07/11 02:32:05;;;;;;;;;;;29.30;99.90;;;;;;4155626;28;20077;-68
2022/07/11 02:34:11;;;;;;;2.83;1.20;;;29.20;99.90;;;;;;4152832;28;19924;-67
2022/07/11 02:36:17;;;;;;;1.98;1.40;;;29.00;99.90;;;;;;4154320;28;20057;-67
2022/07/11 02:38:22;;;;;;;4.60;1.60;;;29.00;99.90;;;;;;4153363;28;20065;-68
2022/07/11 02:40:29;;;;;;;2.15;1.15;;;29.00;99.90;;;;;;4153519;28;20460;-67
2022/07/11 02:42:38;;;;;;;4.30;1.58;;;29.10;99.90;;;;;;4154497;28;20123;-67
2022/07/11 02:44:48;;;;;;;3.40;1.25;;;29.00;99.90;;;;;;4177582;28;20044;-67
2022/07/11 02:47:00;;;;;;;3.53;1.52;;;29.00;99.90;;;;;;4184582;28;20051;-67
2022/07/11 02:49:09;;;;;;;5.05;1.42;;;29.00;99.90;;;;;;4187139;28;20056;-68
2022/07/11 02:51:28;;;;;;;4.43;1.40;;;29.00;99.90;;;;;;4182345;28;20056;-67
2022/07/11 02:53:49;;;;;;;2.75;1.27;;;29.10;99.90;;;;;;4174134;28;20118;-67
2022/07/11 02:56:09;;;;;;;2.28;1.45;;;29.00;99.90;;;;;;4166149;28;20588;-67
2022/07/11 02:58:15;;;;;;;4.22;1.60;;;28.90;99.90;;;;;;4170757;28;20156;-67
2022/07/11 03:00:29;;;;;;;2.30;1.50;;;29.00;99.90;;;;;;4154703;28;20168;-66
2022/07/11 03:02:47;;;;;;;1.77;0.95;;;29.00;99.90;;;;;;4178042;28;20122;-67
2022/07/11 03:04:58;;;;;;;1.70;1.17;;;29.00;99.90;;;;;;4185570;28;20057;-68
2022/07/11 03:07:10;;;;;;;2.08;1.08;;;29.10;99.90;;;;;;4163036;28;20606;-67
2022/07/11 03:09:22;;;;;;;4.22;1.45;;;29.20;99.90;;;;;;4170739;28;20450;-67
2022/07/11 03:11:34;;;;;;;3.73;1.97;;;29.10;99.90;;;;;;4169294;28;20041;-67
2022/07/11 03:13:45;;;;;;;6.30;1.73;;;29.30;99.90;;;;;;4170238;28;20048;-67
2022/07/11 03:15:53;;;;;;;4.57;1.45;;;29.40;99.90;;;;;;4178685;28;20048;-67
2022/07/11 03:18:14;;;;;;;3.03;1.58;;;29.50;99.90;;;;;;4186121;28;20719;-67
2022/07/11 03:20:21;;;;;;;3.45;1.48;;;29.70;99.90;;;;;;4187240;28;20061;-68
2022/07/11 03:22:33;;;;;;;1.70;1.10;;;29.70;99.90;;;;;;4184822;28;20048;-68
2022/07/11 03:24:50;;;;;;;5.93;1.30;;;29.50;99.90;;;;;;4186924;28;20056;-67
2022/07/11 03:27:05;;;;;;;4.15;1.10;;;29.40;99.90;;;;;;4170951;28;20146;-68
2022/07/11 03:29:24;;;;;;;2.65;1.00;;;29.40;99.90;;;;;;4173206;28;20049;-67
2022/07/11 03:31:31;;;;;;;2.72;1.13;;;29.40;99.90;;;;;;4171279;28;20120;-68
2022/07/11 03:33:37;;;;;;;5.78;1.10;;;29.30;99.90;;;;;;4169434;28;20045;-67
2022/07/11 03:35:44;;;;;;;5.13;0.93;;;29.10;99.90;;;;;;4169499;28;20073;-67
2022/07/11 03:37:49;;;;;;;1.42;0.70;;;28.80;99.90;;;;;;4176718;28;20431;-67
2022/07/11 03:40:03;;;;;;;1.23;0.60;;;28.20;99.90;;;;;;4174955;28;20543;-67
2022/07/11 03:42:09;;;;;;;2.28;0.70;;;27.70;99.90;;;;;;4166432;28;20315;-67
2022/07/11 03:44:18;;;;;;;1.55;0.70;;;27.50;99.90;;;;;;4170385;28;20404;-67
2022/07/11 03:46:38;;;;;;;5.93;0.80;;;27.50;99.90;;;;;;4177005;28;20491;-67
2022/07/11 03:48:51;;;;;;;3.08;0.75;;;27.60;99.90;;;;;;4170619;28;20098;-67
2022/07/11 03:50:59;;;;;;;2.72;0.90;;;27.60;99.90;;;;;;4178430;28;20529;-67
2022/07/11 03:53:07;;;;;;;3.53;1.08;;;27.30;99.90;;;;;;4175271;28;20053;-67
2022/07/11 03:55:18;;;;;;;6.47;1.38;;;27.00;99.90;;;;;;4183901;28;20079;-67
2022/07/11 03:57:25;;;;;;;4.35;1.42;;;26.80;99.90;;;;;;4183708;28;20048;-67
2022/07/11 03:59:39;;;;;;;4.35;1.65;;;26.90;99.90;;;;;;4153330;28;20045;-67
2022/07/11 04:01:45;;;;;;;5.15;1.60;;;27.00;99.90;;;;;;4176656;28;20060;-67
2022/07/11 04:03:53;;;;;;;4.13;1.38;;;26.90;99.90;;;;;;4173695;28;20044;-67
2022/07/11 04:06:00;;;;;;;3.78;1.27;;;26.90;99.90;;;;;;4162215;28;20063;-67
2022/07/11 04:08:06;;;;;;;3.95;1.45;;;27.20;99.90;;;;;;4175619;28;20431;-70
2022/07/11 04:10:19;;;;;;;3.72;1.40;;;27.20;99.90;;;;;;4178228;28;20142;-67
2022/07/11 04:12:27;;;;;;;3.80;1.02;;;27.40;99.90;;;;;;4156695;28;20052;-66
2022/07/11 04:14:38;;;;;;;4.65;1.58;;;27.30;99.90;;;;;;4157033;28;20500;-66
2022/07/11 04:16:46;;;;;;;5.65;1.55;;;27.40;99.90;;;;;;4186242;28;20115;-66
2022/07/11 04:18:53;;;;;;;3.03;1.20;;;27.50;99.90;;;;;;4186772;28;20641;-66
2022/07/11 04:21:00;;;;;;;3.60;1.40;;;27.30;99.90;;;;;;4187752;28;20518;-66
2022/07/11 04:23:27;;;;;;;2.25;1.25;;;27.50;99.90;;;;;;4187727;28;20135;-65
2022/07/11 04:25:35;;;;;;;2.85;2.20;;;27.30;99.90;;;;;;4167406;28;20050;-67
2022/07/11 04:27:50;;;;;;;2.67;1.92;;;27.40;99.90;;;;;;4156987;28;20111;-66
2022/07/11 04:30:06;;;;;;;4.90;2.60;;;27.50;99.90;;;;;;4171568;28;20508;-66
2022/07/11 04:32:16;;;;;;;2.50;1.80;;;27.60;99.90;;;;;;4178005;28;20099;-66
2022/07/11 04:34:25;;;;;;;3.50;2.00;;;27.60;99.90;;;;;;4172483;28;20041;-66
2022/07/11 04:36:32;;;;;;;2.72;1.52;;;27.40;99.90;;;;;;4155658;28;20046;-66
2022/07/11 04:38:43;;;;;;;3.63;1.52;;;27.30;99.90;;;;;;4176416;28;20068;-65
2022/07/11 04:40:51;;;;;;;3.50;1.70;;;27.60;99.90;;;;;;4153143;28;20115;-66
2022/07/11 04:43:00;;;;;;;2.83;1.30;;;27.80;99.90;;;;;;4176451;28;20506;-66
2022/07/11 04:45:07;;;;;;;4.03;1.35;;;27.90;99.90;;;;;;4173490;28;20587;-66
2022/07/11 04:47:19;;;;;;;2.92;1.30;;;28.00;99.90;;;;;;4179833;28;20041;-66
2022/07/11 04:49:25;;;;;;;3.22;1.40;;;28.20;99.90;;;;;;4175743;28;20044;-66
2022/07/11 04:51:32;;;;;;;2.40;0.98;;;28.30;99.90;;;;;;4177140;28;20958;-66
2022/07/11 04:53:38;;;;;;;2.05;0.93;;;28.20;99.90;;;;;;4165382;28;20049;-66
2022/07/11 04:55:45;;;;;;;3.08;1.10;;;28.10;99.90;;;;;;4171651;28;20045;-66
2022/07/11 04:57:56;;;;;;;2.45;1.30;;;28.30;99.90;;;;;;4172555;28;20564;-65
2022/07/11 05:00:03;;;;;;;2.95;1.35;;;28.40;99.90;;;;;;4180563;28;20169;-66
2022/07/11 05:02:17;;;;;;;2.88;1.55;;;28.60;99.90;;;;;;4187690;28;20049;-66
2022/07/11 05:04:28;;;;;;;2.47;1.33;;;28.60;99.90;;;;;;4172738;28;20087;-66
2022/07/11 05:06:36;;;;;;;2.45;1.05;;;28.50;99.90;;;;;;4175985;28;20049;-66
2022/07/11 05:08:42;;;;;;;2.10;1.13;;;28.50;99.90;;;;;;4172165;28;20103;-66
2022/07/11 05:10:49;;;;;;;3.58;1.52;;;28.60;99.90;;;;;;4170196;28;20577;-66
2022/07/11 05:12:54;;;;;;;3.30;1.50;;;28.70;99.90;;;;;;4172590;28;20072;-67
2022/07/11 05:14:59;;;;;;;2.20;1.50;;;28.70;99.90;;;;;;4170799;28;20382;-66
2022/07/11 05:17:04;;;;;;;2.63;1.23;;;28.70;99.90;;;;;;4170378;28;20550;-66
2022/07/11 05:19:09;;;;;;;2.08;1.40;;;28.80;99.90;;;;;;4171213;28;20331;-66
2022/07/11 05:21:22;;;;;;;2.28;1.73;;;28.70;99.90;;;;;;4170275;28;20130;-66
2022/07/11 05:23:28;;;;;;;1.88;1.58;;;28.70;99.90;;;;;;4169680;28;20045;-66
2022/07/11 05:25:35;;;;;;;2.55;1.70;;;28.80;99.90;;;;;;4172361;28;20053;-66
2022/07/11 05:27:39;;;;;;;1.75;1.13;;;29.00;99.90;;;;;;4171979;28;20118;-66
2022/07/11 05:29:43;;;;;;;2.08;0.98;;;29.00;99.90;;;;;;4177021;28;20056;-67
2022/07/11 05:31:50;;;;;;;2.83;1.20;;;29.10;99.90;;;;;;4187580;28;20063;-66
2022/07/11 05:33:56;;;;;;;2.95;1.98;;;29.10;99.90;;;;;;4188599;28;20048;-66
2022/07/11 05:36:01;;;;;;;1.85;1.60;;;28.90;99.90;;;;;;4188528;28;20056;-66
2022/07/11 05:38:06;;;;;;;3.78;1.73;;;29.00;99.90;;;;;;4188133;28;20057;-66
2022/07/11 05:40:16;;;;;;;3.00;1.80;;;29.20;99.90;;;;;;4176232;28;20132;-66
2022/07/11 05:42:22;;;;;;;2.17;1.00;;;29.30;99.90;;;;;;4171183;28;20162;-66
2022/07/11 05:44:28;;;;;;;1.30;1.20;;;29.20;99.90;;;;;;4172208;28;20812;-66
2022/07/11 05:46:33;;;;;;;1.10;1.00;;;29.10;99.90;;;;;;4170887;28;20059;-67
2022/07/11 05:48:43;;;;;;;6.22;1.60;;;29.20;99.90;;;;;;4171976;28;20045;-66
2022/07/11 05:50:50;;;;;;;3.38;1.67;;;29.20;99.90;;;;;;4183074;28;20059;-66
2022/07/11 05:52:58;;;;;;;3.13;1.60;;;29.20;99.90;;;;;;4186825;28;20060;-66
2022/07/11 05:55:05;;;;;;;2.60;1.83;;;29.30;99.90;;;;;;4163348;28;20053;-67
2022/07/11 05:57:10;;;;;;;5.05;2.00;;;29.30;99.90;;;;;;4156278;28;20516;-66
2022/07/11 05:59:22;;;;;;;3.10;1.60;;;29.20;99.90;;;;;;4169094;28;20059;-67
2022/07/11 06:01:31;;;;;;;3.15;1.70;;;29.30;99.90;;;;;;4146182;28;20353;-67
2022/07/11 06:03:41;;;;;;;3.50;1.77;;;29.30;99.90;;;;;;4161965;28;20055;-67
2022/07/11 06:05:51;;;;;;;4.25;1.85;;;29.20;99.90;;;;;;4163929;28;20056;-67
2022/07/11 06:10:18;;;;;;;5.03;2.40;;;29.20;99.90;;;;;;4170550;28;20079;-67
2022/07/11 06:12:29;;;;;;;4.78;2.20;;;29.20;99.90;;;;;;4171314;28;20114;-67
2022/07/11 06:14:38;;;;;;;2.72;1.75;;;29.20;99.90;;;;;;4155629;28;20049;-67
2022/07/11 06:16:47;;;;;;;2.60;1.70;;;29.20;99.90;;;;;;4172103;28;20151;-67
2022/07/11 06:18:54;;;;;;;3.15;1.60;;;29.20;99.90;;;;;;4172163;28;20051;-67
2022/07/11 06:21:20;;;;;;;5.78;1.90;;;29.20;99.90;;;;;;4150150;28;20506;-67
2022/07/11 06:23:25;;;;;;;3.58;1.42;;;29.20;99.90;;;;;;4164878;28;20045;-66
2022/07/11 06:25:32;;;;;;;3.03;1.63;;;29.10;99.90;;;;;;4171214;28;20314;-66
2022/07/11 06:27:39;;;;;;;5.40;2.00;;;29.10;99.90;;;;;;4176331;28;20048;-67
2022/07/11 06:29:44;;;;;;;2.78;1.70;;;29.10;99.90;;;;;;4171903;28;20295;-68
2022/07/11 06:31:52;;;;;;;3.55;1.73;;;29.00;99.90;;;;;;4170800;28;20455;-67
2022/07/11 06:34:01;;;;;;;3.45;1.80;;;29.00;99.90;;;;;;4170642;28;20061;-66
2022/07/11 06:36:08;;;;;;;2.33;1.60;;;29.00;99.90;;;;;;4172583;28;20334;-66
2022/07/11 06:38:16;;;;;;;2.42;1.85;;;29.00;99.90;;;;;;4172326;28;20711;-66
2022/07/11 06:40:24;;;;;;;6.63;2.80;;;29.00;99.90;;;;;;4170460;28;20091;-67
2022/07/11 06:42:32;;;;;;;3.10;1.85;;;28.90;99.90;;;;;;4172105;28;20574;-68
2022/07/11 06:44:40;;;;;;;4.05;2.30;;;28.90;99.90;;;;;;4172221;28;20053;-67
2022/07/11 06:46:56;;;;;;;3.42;2.38;;;28.90;99.90;;;;;;4172310;28;20546;-66
2022/07/11 06:49:14;;;;;;;6.03;2.42;;;28.90;99.90;;;;;;4156827;28;20092;-66
2022/07/11 06:51:22;;;;;;;4.13;2.50;;;28.90;99.90;;;;;;4174601;28;20500;-68
2022/07/11 06:53:40;;;;;;;4.68;2.10;;;28.90;99.90;;;;;;4176177;28;20083;-66
2022/07/11 06:56:00;;;;;;;3.15;2.10;;;28.90;99.90;;;;;;4173324;28;20044;-67
2022/07/11 06:58:09;;;;;;;3.65;2.28;;;28.80;99.90;;;;;;4175457;28;20045;-66
2022/07/11 07:00:33;;;;;;;4.80;2.42;;;28.90;99.90;;;;;;4174520;28;20052;-66
2022/07/11 07:02:59;;;;;;;4.88;2.50;;;28.80;99.90;;;;;;4161628;28;20048;-68
2022/07/11 07:05:22;;;;;;;4.78;2.55;;;28.90;99.90;;;;;;4175481;28;20475;-66
2022/07/11 07:07:32;;;;;;;5.93;2.50;;;28.90;99.90;;;;;;4175191;28;20052;-66
2022/07/11 07:09:39;;;;;;;5.50;2.60;;;28.90;99.90;;;;;;4175361;28;20044;-66
2022/07/11 07:11:54;;;;;;;4.35;2.58;;;28.90;99.90;;;;;;4175550;28;20075;-67
2022/07/11 07:14:00;;;;;;;2.97;2.20;;;29.00;99.90;;;;;;4175488;28;20300;-66
2022/07/11 07:16:16;;;;;;;4.30;2.40;;;29.00;99.90;;;;;;4174935;28;20103;-66
2022/07/11 07:18:33;;;;;;;3.17;2.38;;;29.00;99.90;;;;;;4174308;28;20045;-67
2022/07/11 07:20:40;;;;;;;3.75;2.45;;;29.00;99.90;;;;;;4175117;28;20036;-68
2022/07/11 07:22:50;;;;;;;3.28;2.45;;;29.10;99.90;;;;;;4174059;28;20490;-66
2022/07/11 07:25:00;;;;;;;5.43;2.60;;;29.10;99.90;;;;;;4175475;28;20052;-66
2022/07/11 07:27:25;;;;;;;4.70;2.95;;;29.10;99.90;;;;;;4173914;28;20045;-66
2022/07/11 07:29:32;;;;;;;5.45;2.85;;;29.20;99.90;;;;;;4173629;28;20049;-66
2022/07/11 07:31:41;;;;;;;3.45;2.60;;;29.20;99.90;;;;;;4173742;28;20090;-67
2022/07/11 07:33:47;;;;;;;3.25;2.50;;;29.30;99.90;;;;;;4174024;28;20072;-67
2022/07/11 07:36:01;;;;;;;4.97;2.63;;;29.30;99.90;;;;;;4173572;28;20570;-67
2022/07/11 07:38:07;;;;;;;5.45;2.42;;;29.30;99.90;;;;;;4174768;28;20106;-66
2022/07/11 07:40:14;;;;;;;3.53;2.28;;;29.30;99.90;;;;;;4175207;28;20053;-66
2022/07/11 07:42:25;;;;;;;6.07;2.65;;;29.30;99.90;;;;;;4174737;28;20428;-67
2022/07/11 07:44:50;;;;;;;3.50;2.75;;;29.40;99.90;;;;;;4174225;28;20405;-66
2022/07/11 07:47:00;;;;;;;5.28;3.00;;;29.40;99.90;;;;;;4174942;28;20451;-66
2022/07/11 07:49:08;;;;;;;5.00;2.83;;;29.40;99.90;;;;;;4174487;28;20077;-66
2022/07/11 07:51:14;;;;;;;4.30;3.08;;;29.40;99.90;;;;;;4174604;28;20057;-66
2022/07/11 07:53:34;;;;;;;4.25;2.97;;;29.50;99.90;;;;;;4173491;28;20376;-65
2022/07/11 07:55:49;;;;;;;4.80;2.50;;;29.50;99.90;;;;;;4174899;28;20445;-65
2022/07/11 07:58:05;;;;;;;5.30;2.70;;;29.40;99.90;;;;;;4174812;28;20057;-64
2022/07/11 08:02:39;;;;;;;6.38;3.10;;;29.40;99.90;;;;;;4173462;28;20052;-64
2022/07/11 08:04:44;;;;;;;5.40;2.50;;;29.40;99.90;;;;;;4176778;28;20523;-64
2022/07/11 08:06:50;;;;;;;5.18;2.97;;;29.40;99.90;;;;;;4179836;28;20700;-64
2022/07/11 08:08:58;;;;;;;5.88;2.80;;;29.40;99.90;;;;;;4181416;28;20053;-64
2022/07/11 08:11:04;;;;;;;4.40;3.17;;;29.40;99.90;;;;;;4181069;28;20384;-64
2022/07/11 08:13:29;;;;;;;4.60;3.05;;;29.40;99.90;;;;;;4181163;28;20052;-64
2022/07/11 08:15:33;;;;;;;4.32;3.42;;;29.30;99.90;;;;;;4164265;28;20045;-64
2022/07/11 08:17:38;;;;;;;4.82;3.33;;;29.30;99.90;;;;;;4179436;28;20064;-64
2022/07/11 08:19:43;;;;;;;4.95;3.58;;;29.20;99.90;;;;;;4179993;28;20735;-64
2022/07/11 08:21:47;;;;;;;5.88;3.30;;;29.20;99.90;;;;;;4181321;28;20411;-64
2022/07/11 08:23:52;;;;;;;5.43;3.40;;;29.20;99.90;;;;;;4181076;28;20089;-65
2022/07/11 08:25:57;;;;;;;5.18;3.45;;;29.10;99.90;;;;;;4181175;28;20470;-64
2022/07/11 08:28:05;;;;;;;6.75;3.85;;;29.10;99.90;;;;;;4180093;28;20128;-65
2022/07/11 08:30:10;;;;;;;8.77;3.60;;;29.10;99.90;;;;;;4180807;28;20107;-65
2022/07/11 08:32:14;;;;;;;5.80;4.45;;;29.10;99.90;;;;;;4179832;28;20073;-65
2022/07/11 08:34:22;;;;;;;5.63;4.32;;;29.10;99.90;;;;;;4130083;28;20113;-65
2022/07/11 08:36:29;;;;;;;7.78;3.83;;;29.10;99.90;;;;;;4180832;28;20119;-64
2022/07/11 08:38:35;;;;;;;6.03;4.07;;;29.10;99.90;;;;;;4164279;28;20409;-65
2022/07/11 08:40:43;;;;;;;6.57;3.92;;;29.10;99.90;;;;;;4181110;28;20155;-65
2022/07/11 08:42:51;;;;;;;8.27;4.38;;;29.10;99.90;;;;;;4180757;28;20049;-65
2022/07/11 08:44:58;;;;;;;5.65;4.60;;;29.10;99.90;;;;;;4179954;28;20049;-65
2022/07/11 08:47:06;;;;;;;8.73;4.40;;;29.10;99.90;;;;;;4162844;28;20053;-65
2022/07/11 08:49:12;;;;;;;5.47;4.28;;;29.10;99.90;;;;;;4162320;28;20045;-66
2022/07/11 08:51:17;;;;;;;7.93;4.70;;;29.20;99.90;;;;;;4178307;28;20048;-66
2022/07/11 08:53:22;;;;;;;9.55;4.47;;;29.20;99.90;;;;;;4178548;28;20045;-66
2022/07/11 08:55:27;;;;;;;6.13;4.30;;;29.20;99.90;;;;;;4178302;28;20052;-66
2022/07/11 08:57:31;;;;;;;6.53;4.70;;;29.20;99.90;;;;;;4178236;28;20053;-65
2022/07/11 08:59:41;;;;;;;7.28;4.53;;;29.30;99.90;;;;;;4178662;28;20063;-65
2022/07/11 09:01:46;;;;;;;6.68;4.32;;;29.30;99.90;;;;;;4162664;28;20055;-65
2022/07/11 09:03:52;;;;;;;6.90;4.53;;;29.30;99.90;;;;;;4178711;28;20071;-66
2022/07/11 09:05:57;;;;;;;5.47;3.67;;;29.30;99.90;;;;;;4177961;28;20033;-65
2022/07/11 09:08:05;;;;;;;6.45;3.70;;;29.30;99.90;;;;;;4161909;28;20076;-65
2022/07/11 09:10:10;;;;;;;6.68;3.55;;;29.30;99.90;;;;;;4178698;28;20072;-66
2022/07/11 09:12:19;;;;;;;4.20;3.17;;;29.30;99.90;;;;;;4162067;28;20050;-66
2022/07/11 09:14:30;;;;;;;6.78;3.88;;;29.30;99.90;;;;;;4162367;28;20656;-65
2022/07/11 09:16:35;;;;;;;20.77;15.48;;;29.30;99.90;;;;;;4176821;28;20562;-65
2022/07/11 09:18:41;;;;;;;16.23;11.23;;;29.20;99.90;;;;;;4137635;28;20089;-65
2022/07/11 09:25:43;;;;;;;11.27;5.97;;;29.10;99.90;;;;;;4143062;28;20054;-65
2022/07/11 09:28:04;;;;;;;4.45;3.03;;;29.00;99.90;;;;;;4143025;28;20151;-64
2022/07/11 09:30:19;;;;;;;2.80;1.40;;;28.90;99.90;;;;;;4139684;28;20042;-66
2022/07/11 09:32:25;;;;;;;4.43;1.27;;;28.50;99.90;;;;;;4136303;28;20071;-65
2022/07/11 09:34:30;;;;;;;2.67;1.00;;;28.30;99.90;;;;;;4117665;28;20227;-64
2022/07/11 09:36:40;;;;;;;2.90;1.10;;;28.20;99.90;;;;;;4117507;28;20565;-65
2022/07/11 09:38:56;;;;;;;3.13;0.82;;;28.20;99.90;;;;;;4118046;28;20050;-64
2022/07/11 09:41:03;;;;;;;1.75;1.00;;;27.90;99.90;;;;;;4117766;28;20070;-65
2022/07/11 09:43:08;;;;;;;2.28;1.00;;;27.90;99.90;;;;;;4104493;28;20428;-65
2022/07/11 09:45:20;;;;;;;2.90;0.90;;;27.80;99.90;;;;;;4117333;28;20042;-65
2022/07/11 09:47:46;;;;;;;5.32;1.50;;;27.60;99.90;;;;;;4113860;28;20167;-66
2022/07/11 09:49:51;;;;;;;5.32;1.50;;;27.50;99.90;;;;;;4125092;28;20080;-64
2022/07/11 09:52:11;;;;;;;5.90;1.45;;;27.40;99.90;;;;;;4142192;28;20524;-64
2022/07/11 09:54:16;;;;;;;5.43;1.65;;;27.20;99.90;;;;;;4142076;28;20046;-64
2022/07/11 09:56:26;;;;;;;6.22;1.63;;;27.30;99.90;;;;;;4142457;28;20042;-66
2022/07/11 09:59:00;;;;;;;5.15;1.73;;;27.40;99.90;;;;;;4102478;28;20374;-66
2022/07/11 10:01:07;;;;;;;6.93;1.70;;;27.30;99.90;;;;;;4110147;28;20050;-66
2022/07/11 10:03:13;;;;;;;6.47;2.10;;;27.30;99.90;;;;;;4109779;28;20465;-66
2022/07/11 10:05:39;;;;;;;5.38;1.80;;;27.20;99.90;;;;;;4108109;28;20826;-65
2022/07/11 10:07:47;;;;;;;5.45;1.95;;;27.40;99.90;;;;;;4142127;28;20046;-67
2022/07/11 10:09:52;;;;;;;6.30;1.85;;;27.50;99.90;;;;;;4119915;28;20113;-66
2022/07/11 10:11:59;;;;;;;4.75;2.08;;;27.50;99.90;;;;;;4091006;29;20143;-66
2022/07/11 10:14:07;;;;;;;5.15;2.28;;;27.50;99.90;;;;;;4107293;28;20400;-66
2022/07/11 10:16:17;;;;;;;3.72;2.10;;;27.50;99.90;;;;;;4123687;28;20047;-67
2022/07/11 10:18:33;;;;;;;5.47;2.53;;;27.50;99.90;;;;;;4101782;28;20138;-66
2022/07/11 10:21:10;;;;;;;8.68;2.20;;;27.50;99.90;;;;;;4130708;28;20076;-66
2022/07/11 10:23:31;;;;;;;4.68;1.75;;;27.50;99.90;;;;;;4124779;28;20062;-66
2022/07/11 10:26:01;;;;;;;4.97;1.73;;;27.50;99.90;;;;;;4101715;28;21855;-68
2022/07/11 10:28:19;;;;;;;6.88;1.85;;;27.50;99.90;;;;;;4104157;28;20078;-68
2022/07/11 10:30:43;;;;;;;5.93;2.10;;;27.50;99.90;;;;;;4150341;28;20131;-67
2022/07/11 10:32:59;;;;;;;5.65;2.38;;;27.60;99.90;;;;;;4162958;28;20377;-66
2022/07/11 10:35:10;;;;;;;6.00;2.22;;;27.50;99.90;;;;;;4153745;28;20049;-66
2022/07/11 10:37:15;;;;;;;3.53;1.60;;;27.50;99.90;;;;;;4170596;28;20045;-66
2022/07/11 10:39:29;;;;;;;4.35;1.73;;;27.50;99.90;;;;;;4168262;28;20045;-66
2022/07/11 10:41:33;;;;;;;4.00;1.30;;;27.50;99.90;;;;;;4155792;28;20049;-67
2022/07/11 10:43:40;;;;;;;2.53;1.75;;;27.50;99.90;;;;;;4130316;28;20599;-66
2022/07/11 10:46:03;;;;;;;5.57;3.70;;;27.50;99.90;;;;;;4154183;28;20060;-66
2022/07/11 10:48:11;;;;;;;3.15;2.55;;;27.50;99.90;;;;;;4154559;28;20077;-67
2022/07/11 10:50:31;;;;;;;4.05;2.00;;;27.40;99.90;;;;;;4138717;28;20089;-67
2022/07/11 10:52:51;;;;;;;6.90;2.50;;;27.50;99.90;;;;;;4152973;28;20052;-67
2022/07/11 10:55:20;;;;;;;5.07;2.80;;;27.40;99.90;;;;;;4138032;28;20042;-67
2022/07/11 10:57:49;;;;;;;5.93;3.45;;;27.40;99.90;;;;;;4156627;28;20528;-66
2022/07/11 10:59:58;;;;;;;6.32;2.97;;;27.40;99.90;;;;;;4152369;28;20436;-64
2022/07/11 11:02:14;;;;;;;6.00;2.92;;;27.30;99.90;;;;;;4151060;28;20046;-66
2022/07/11 11:04:43;;;;;;;6.32;2.30;;;27.30;99.90;;;;;;4150075;28;20464;-67
2022/07/11 11:06:58;;;;;;;4.60;1.90;;;27.30;99.90;;;;;;4148921;28;20531;-68
2022/07/11 11:09:02;;;;;;;3.25;1.33;;;27.30;99.90;;;;;;4152797;28;20201;-67
2022/07/11 11:11:09;;;;;;;9.30;1.40;;;27.20;99.90;;;;;;4140612;28;20042;-66
2022/07/11 11:13:16;;;;;;;2.05;1.02;;;27.30;99.90;;;;;;4153333;28;20045;-65
2022/07/11 11:15:33;;;;;;;3.97;1.10;;;27.30;99.90;;;;;;4166940;28;20053;-66
2022/07/11 11:17:37;;;;;;;3.47;1.05;;;27.30;99.90;;;;;;4189595;28;20390;-65
2022/07/11 11:19:48;;;;;;;2.50;1.13;;;27.30;99.90;;;;;;4172790;28;20454;-66
2022/07/11 11:22:09;;;;;;;37.15;31.08;;;27.30;99.90;;;;;;4171399;28;20706;-66
2022/07/11 11:24:14;;;;;;;41.47;36.53;;;27.20;99.90;;;;;;4155720;28;20045;-66
2022/07/11 11:26:22;;;;;;;22.85;20.27;;;27.10;99.90;;;;;;4167554;28;20045;-66
2022/07/11 11:28:28;;;;;;;8.70;5.30;;;27.20;99.90;;;;;;4168721;28;20069;-66
2022/07/11 11:30:32;;;;;;;7.88;3.50;;;27.20;99.90;;;;;;4163751;28;20040;-68
2022/07/11 11:32:41;;;;;;;5.45;2.97;;;27.20;99.90;;;;;;4154788;28;20053;-66
2022/07/11 11:34:46;;;;;;;3.78;3.08;;;27.20;99.90;;;;;;4169773;28;20499;-65